sensor_id;sensor_type;location;lat;lon;timestamp;P1;durP1;ratioP1;P2;durP2;ratioP2
20478;SDS011;10398;52.490;13.434;2024-03-08T00:00:50;23.47;;;7.17;;
20478;SDS011;10398;52.490;13.434;2024-03-08T00:03:16;24.27;;;6.60;;
20478;SDS011;10398;52.490;13.434;2024-03-08T00:05:42;20.77;;;7.13;;
20478;SDS011;10398;52.490;13.434;2024-03-08T00:08:08;16.50;;;7.00;;
20478;SDS011;10398;52.490;13.434;2024-03-08T00:10:34;18.93;;;7.77;;
20478;SDS011;10398;52.490;13.434;2024-03-08T00:13:00;20.57;;;7.10;;
20478;SDS011;10398;52.490;13.434;2024-03-08T00:15:29;20.73;;;7.07;;
20478;SDS011;10398;52.490;13.434;2024-03-08T00:17:54;13.37;;;6.60;;
20478;SDS011;10398;52.490;13.434;2024-03-08T00:20:20;22.43;;;8.17;;
20478;SDS011;10398;52.490;13.434;2024-03-08T00:22:46;20.03;;;6.57;;
20478;SDS011;10398;52.490;13.434;2024-03-08T00:25:11;27.67;;;7.77;;
20478;SDS011;10398;52.490;13.434;2024-03-08T00:27:37;17.90;;;6.87;;
20478;SDS011;10398;52.490;13.434;2024-03-08T00:30:03;22.43;;;7.40;;
20478;SDS011;10398;52.490;13.434;2024-03-08T00:32:30;21.50;;;7.73;;
20478;SDS011;10398;52.490;13.434;2024-03-08T00:34:56;18.77;;;7.40;;
20478;SDS011;10398;52.490;13.434;2024-03-08T00:37:23;21.37;;;7.07;;
20478;SDS011;10398;52.490;13.434;2024-03-08T00:39:51;16.00;;;5.83;;
20478;SDS011;10398;52.490;13.434;2024-03-08T00:42:18;29.03;;;10.87;;
20478;SDS011;10398;52.490;13.434;2024-03-08T00:44:45;26.27;;;7.13;;
20478;SDS011;10398;52.490;13.434;2024-03-08T00:47:11;17.53;;;6.60;;
20478;SDS011;10398;52.490;13.434;2024-03-08T00:49:37;19.90;;;6.67;;
20478;SDS011;10398;52.490;13.434;2024-03-08T00:52:03;19.17;;;7.27;;
20478;SDS011;10398;52.490;13.434;2024-03-08T00:54:33;19.33;;;7.20;;
20478;SDS011;10398;52.490;13.434;2024-03-08T00:56:59;20.13;;;7.00;;
20478;SDS011;10398;52.490;13.434;2024-03-08T00:59:28;25.63;;;7.70;;
20478;SDS011;10398;52.490;13.434;2024-03-08T01:01:54;24.03;;;6.50;;
20478;SDS011;10398;52.490;13.434;2024-03-08T01:04:20;18.63;;;6.77;;
20478;SDS011;10398;52.490;13.434;2024-03-08T01:06:46;17.37;;;6.53;;
20478;SDS011;10398;52.490;13.434;2024-03-08T01:09:12;17.87;;;6.90;;
20478;SDS011;10398;52.490;13.434;2024-03-08T01:11:38;20.77;;;6.50;;
20478;SDS011;10398;52.490;13.434;2024-03-08T01:14:05;16.03;;;6.07;;
20478;SDS011;10398;52.490;13.434;2024-03-08T01:16:31;20.80;;;6.63;;
20478;SDS011;10398;52.490;13.434;2024-03-08T01:18:58;16.80;;;6.23;;
20478;SDS011;10398;52.490;13.434;2024-03-08T01:21:24;13.33;;;6.83;;
20478;SDS011;10398;52.490;13.434;2024-03-08T01:23:49;24.30;;;6.33;;
20478;SDS011;10398;52.490;13.434;2024-03-08T01:26:15;17.93;;;6.20;;
20478;SDS011;10398;52.490;13.434;2024-03-08T01:28:41;18.47;;;6.50;;
20478;SDS011;10398;52.490;13.434;2024-03-08T01:31:07;22.00;;;7.10;;
20478;SDS011;10398;52.490;13.434;2024-03-08T01:33:32;23.30;;;7.10;;
20478;SDS011;10398;52.490;13.434;2024-03-08T01:35:58;19.80;;;6.57;;
20478;SDS011;10398;52.490;13.434;2024-03-08T01:38:23;19.93;;;7.17;;
20478;SDS011;10398;52.490;13.434;2024-03-08T01:40:50;20.50;;;6.83;;
20478;SDS011;10398;52.490;13.434;2024-03-08T01:45:51;22.90;;;7.23;;
20478;SDS011;10398;52.490;13.434;2024-03-08T01:48:17;20.17;;;7.57;;
20478;SDS011;10398;52.490;13.434;2024-03-08T01:50:44;21.70;;;6.97;;
20478;SDS011;10398;52.490;13.434;2024-03-08T01:53:10;21.57;;;7.33;;
20478;SDS011;10398;52.490;13.434;2024-03-08T01:55:37;18.93;;;6.40;;
20478;SDS011;10398;52.490;13.434;2024-03-08T01:58:04;17.73;;;6.70;;
20478;SDS011;10398;52.490;13.434;2024-03-08T02:00:31;20.03;;;7.10;;
20478;SDS011;10398;52.490;13.434;2024-03-08T02:02:58;22.37;;;6.77;;
20478;SDS011;10398;52.490;13.434;2024-03-08T02:05:23;16.80;;;6.07;;
20478;SDS011;10398;52.490;13.434;2024-03-08T02:07:50;25.47;;;6.33;;
20478;SDS011;10398;52.490;13.434;2024-03-08T02:10:16;15.77;;;6.90;;
20478;SDS011;10398;52.490;13.434;2024-03-08T02:12:42;25.03;;;6.97;;
20478;SDS011;10398;52.490;13.434;2024-03-08T02:15:08;15.10;;;6.63;;
20478;SDS011;10398;52.490;13.434;2024-03-08T02:17:34;14.80;;;5.73;;
20478;SDS011;10398;52.490;13.434;2024-03-08T02:19:59;18.63;;;5.97;;
20478;SDS011;10398;52.490;13.434;2024-03-08T02:22:30;17.57;;;6.47;;
20478;SDS011;10398;52.490;13.434;2024-03-08T02:24:57;17.20;;;5.60;;
20478;SDS011;10398;52.490;13.434;2024-03-08T02:27:26;20.70;;;6.33;;
20478;SDS011;10398;52.490;13.434;2024-03-08T02:29:53;20.77;;;7.07;;
20478;SDS011;10398;52.490;13.434;2024-03-08T02:32:23;17.53;;;6.77;;
20478;SDS011;10398;52.490;13.434;2024-03-08T02:34:50;18.37;;;7.63;;
20478;SDS011;10398;52.490;13.434;2024-03-08T02:37:18;22.90;;;7.20;;
20478;SDS011;10398;52.490;13.434;2024-03-08T02:39:44;18.43;;;7.17;;
20478;SDS011;10398;52.490;13.434;2024-03-08T02:42:10;25.20;;;8.20;;
20478;SDS011;10398;52.490;13.434;2024-03-08T02:44:35;16.40;;;6.40;;
20478;SDS011;10398;52.490;13.434;2024-03-08T02:47:02;17.27;;;6.80;;
20478;SDS011;10398;52.490;13.434;2024-03-08T02:49:28;18.73;;;6.47;;
20478;SDS011;10398;52.490;13.434;2024-03-08T02:51:53;13.40;;;6.33;;
20478;SDS011;10398;52.490;13.434;2024-03-08T02:54:19;17.03;;;6.23;;
20478;SDS011;10398;52.490;13.434;2024-03-08T02:56:45;15.43;;;6.10;;
20478;SDS011;10398;52.490;13.434;2024-03-08T02:59:11;19.27;;;7.13;;
20478;SDS011;10398;52.490;13.434;2024-03-08T03:01:38;18.57;;;7.27;;
20478;SDS011;10398;52.490;13.434;2024-03-08T03:04:04;19.70;;;6.70;;
20478;SDS011;10398;52.490;13.434;2024-03-08T03:06:30;17.13;;;6.73;;
20478;SDS011;10398;52.490;13.434;2024-03-08T03:08:56;22.03;;;7.60;;
20478;SDS011;10398;52.490;13.434;2024-03-08T03:11:22;21.10;;;7.10;;
20478;SDS011;10398;52.490;13.434;2024-03-08T03:13:48;19.50;;;7.30;;
20478;SDS011;10398;52.490;13.434;2024-03-08T03:16:18;16.47;;;6.60;;
20478;SDS011;10398;52.490;13.434;2024-03-08T03:18:46;25.00;;;7.60;;
20478;SDS011;10398;52.490;13.434;2024-03-08T03:21:12;17.20;;;7.70;;
20478;SDS011;10398;52.490;13.434;2024-03-08T03:23:41;17.63;;;6.40;;
20478;SDS011;10398;52.490;13.434;2024-03-08T03:26:08;20.47;;;7.60;;
20478;SDS011;10398;52.490;13.434;2024-03-08T03:28:37;23.37;;;7.70;;
20478;SDS011;10398;52.490;13.434;2024-03-08T03:31:05;20.97;;;6.40;;
20478;SDS011;10398;52.490;13.434;2024-03-08T03:33:31;25.63;;;8.87;;
20478;SDS011;10398;52.490;13.434;2024-03-08T03:35:59;19.00;;;7.87;;
20478;SDS011;10398;52.490;13.434;2024-03-08T03:38:26;22.50;;;8.03;;
20478;SDS011;10398;52.490;13.434;2024-03-08T03:40:52;18.57;;;7.23;;
20478;SDS011;10398;52.490;13.434;2024-03-08T03:43:22;15.40;;;7.17;;
20478;SDS011;10398;52.490;13.434;2024-03-08T03:45:51;21.60;;;6.07;;
20478;SDS011;10398;52.490;13.434;2024-03-08T03:48:16;17.13;;;7.43;;
20478;SDS011;10398;52.490;13.434;2024-03-08T03:50:42;16.83;;;6.47;;
20478;SDS011;10398;52.490;13.434;2024-03-08T03:53:07;20.17;;;7.43;;
20478;SDS011;10398;52.490;13.434;2024-03-08T03:55:33;35.00;;;12.53;;
20478;SDS011;10398;52.490;13.434;2024-03-08T03:57:59;27.67;;;11.17;;
20478;SDS011;10398;52.490;13.434;2024-03-08T04:00:26;29.77;;;11.90;;
20478;SDS011;10398;52.490;13.434;2024-03-08T04:02:52;35.17;;;11.90;;
20478;SDS011;10398;52.490;13.434;2024-03-08T04:05:18;20.17;;;7.63;;
20478;SDS011;10398;52.490;13.434;2024-03-08T04:07:43;24.77;;;8.27;;
20478;SDS011;10398;52.490;13.434;2024-03-08T04:10:10;22.63;;;7.90;;
20478;SDS011;10398;52.490;13.434;2024-03-08T04:12:36;22.13;;;6.83;;
20478;SDS011;10398;52.490;13.434;2024-03-08T04:15:02;24.97;;;8.33;;
20478;SDS011;10398;52.490;13.434;2024-03-08T04:17:29;15.57;;;6.23;;
20478;SDS011;10398;52.490;13.434;2024-03-08T04:19:56;22.37;;;7.13;;
20478;SDS011;10398;52.490;13.434;2024-03-08T04:22:22;21.17;;;8.50;;
20478;SDS011;10398;52.490;13.434;2024-03-08T04:24:47;21.73;;;7.80;;
20478;SDS011;10398;52.490;13.434;2024-03-08T04:27:13;24.30;;;7.30;;
20478;SDS011;10398;52.490;13.434;2024-03-08T04:29:42;33.03;;;12.67;;
20478;SDS011;10398;52.490;13.434;2024-03-08T04:32:08;33.53;;;12.97;;
20478;SDS011;10398;52.490;13.434;2024-03-08T04:34:35;32.57;;;12.80;;
20478;SDS011;10398;52.490;13.434;2024-03-08T04:37:01;19.43;;;7.53;;
20478;SDS011;10398;52.490;13.434;2024-03-08T04:39:27;20.50;;;7.37;;
20478;SDS011;10398;52.490;13.434;2024-03-08T04:41:57;19.10;;;7.90;;
20478;SDS011;10398;52.490;13.434;2024-03-08T04:44:28;18.97;;;7.60;;
20478;SDS011;10398;52.490;13.434;2024-03-08T04:46:54;22.37;;;7.67;;
20478;SDS011;10398;52.490;13.434;2024-03-08T04:49:20;22.30;;;8.07;;
20478;SDS011;10398;52.490;13.434;2024-03-08T04:51:46;20.63;;;7.43;;
20478;SDS011;10398;52.490;13.434;2024-03-08T04:54:12;35.73;;;9.20;;
20478;SDS011;10398;52.490;13.434;2024-03-08T04:56:38;23.13;;;7.97;;
20478;SDS011;10398;52.490;13.434;2024-03-08T04:59:04;23.00;;;7.77;;
20478;SDS011;10398;52.490;13.434;2024-03-08T05:01:33;16.43;;;8.07;;
20478;SDS011;10398;52.490;13.434;2024-03-08T05:03:59;22.60;;;8.73;;
20478;SDS011;10398;52.490;13.434;2024-03-08T05:06:25;26.37;;;8.13;;
20478;SDS011;10398;52.490;13.434;2024-03-08T05:08:50;22.37;;;7.83;;
20478;SDS011;10398;52.490;13.434;2024-03-08T05:11:16;22.97;;;7.67;;
20478;SDS011;10398;52.490;13.434;2024-03-08T05:13:41;19.87;;;7.77;;
20478;SDS011;10398;52.490;13.434;2024-03-08T05:16:08;31.13;;;8.93;;
20478;SDS011;10398;52.490;13.434;2024-03-08T05:18:34;20.90;;;7.47;;
20478;SDS011;10398;52.490;13.434;2024-03-08T05:21:01;22.07;;;7.50;;
20478;SDS011;10398;52.490;13.434;2024-03-08T05:23:28;23.43;;;8.07;;
20478;SDS011;10398;52.490;13.434;2024-03-08T05:25:57;23.60;;;9.03;;
20478;SDS011;10398;52.490;13.434;2024-03-08T05:28:23;16.63;;;7.50;;
20478;SDS011;10398;52.490;13.434;2024-03-08T05:30:48;23.50;;;8.63;;
20478;SDS011;10398;52.490;13.434;2024-03-08T05:33:14;19.07;;;7.50;;
20478;SDS011;10398;52.490;13.434;2024-03-08T05:35:39;20.97;;;7.27;;
20478;SDS011;10398;52.490;13.434;2024-03-08T05:38:05;27.30;;;8.87;;
20478;SDS011;10398;52.490;13.434;2024-03-08T05:40:32;26.67;;;8.53;;
20478;SDS011;10398;52.490;13.434;2024-03-08T05:42:58;19.17;;;7.93;;
20478;SDS011;10398;52.490;13.434;2024-03-08T05:45:24;19.33;;;8.30;;
20478;SDS011;10398;52.490;13.434;2024-03-08T05:47:50;33.20;;;13.20;;
20478;SDS011;10398;52.490;13.434;2024-03-08T05:50:17;35.07;;;13.73;;
20478;SDS011;10398;52.490;13.434;2024-03-08T05:52:43;37.50;;;13.17;;
20478;SDS011;10398;52.490;13.434;2024-03-08T05:55:08;24.27;;;8.40;;
20478;SDS011;10398;52.490;13.434;2024-03-08T05:57:34;18.97;;;8.07;;
20478;SDS011;10398;52.490;13.434;2024-03-08T06:00:03;36.27;;;13.37;;
20478;SDS011;10398;52.490;13.434;2024-03-08T06:02:29;35.00;;;14.00;;
20478;SDS011;10398;52.490;13.434;2024-03-08T06:04:54;40.27;;;14.17;;
20478;SDS011;10398;52.490;13.434;2024-03-08T06:07:20;34.93;;;14.53;;
20478;SDS011;10398;52.490;13.434;2024-03-08T06:09:46;23.73;;;8.57;;
20478;SDS011;10398;52.490;13.434;2024-03-08T06:12:13;17.00;;;7.23;;
20478;SDS011;10398;52.490;13.434;2024-03-08T06:14:43;26.63;;;9.17;;
20478;SDS011;10398;52.490;13.434;2024-03-08T06:17:09;22.30;;;8.87;;
20478;SDS011;10398;52.490;13.434;2024-03-08T06:19:36;22.20;;;7.80;;
20478;SDS011;10398;52.490;13.434;2024-03-08T06:22:02;25.73;;;8.43;;
20478;SDS011;10398;52.490;13.434;2024-03-08T06:24:30;26.17;;;7.50;;
20478;SDS011;10398;52.490;13.434;2024-03-08T06:27:01;22.30;;;8.63;;
20478;SDS011;10398;52.490;13.434;2024-03-08T06:29:27;27.27;;;9.07;;
20478;SDS011;10398;52.490;13.434;2024-03-08T06:31:53;25.73;;;9.13;;
20478;SDS011;10398;52.490;13.434;2024-03-08T06:34:18;25.63;;;9.60;;
20478;SDS011;10398;52.490;13.434;2024-03-08T06:36:44;22.47;;;8.70;;
20478;SDS011;10398;52.490;13.434;2024-03-08T06:39:09;20.60;;;8.43;;
20478;SDS011;10398;52.490;13.434;2024-03-08T06:41:36;21.00;;;9.47;;
20478;SDS011;10398;52.490;13.434;2024-03-08T06:44:02;25.33;;;8.80;;
20478;SDS011;10398;52.490;13.434;2024-03-08T06:46:28;27.37;;;9.03;;
20478;SDS011;10398;52.490;13.434;2024-03-08T06:48:53;25.63;;;8.33;;
20478;SDS011;10398;52.490;13.434;2024-03-08T06:51:19;24.03;;;8.90;;
20478;SDS011;10398;52.490;13.434;2024-03-08T06:53:45;20.27;;;8.23;;
20478;SDS011;10398;52.490;13.434;2024-03-08T06:56:11;25.90;;;9.90;;
20478;SDS011;10398;52.490;13.434;2024-03-08T06:58:36;28.97;;;9.93;;
20478;SDS011;10398;52.490;13.434;2024-03-08T07:01:02;24.33;;;8.40;;
20478;SDS011;10398;52.490;13.434;2024-03-08T07:03:29;24.83;;;9.97;;
20478;SDS011;10398;52.490;13.434;2024-03-08T07:05:55;32.00;;;10.03;;
20478;SDS011;10398;52.490;13.434;2024-03-08T07:08:23;21.50;;;8.23;;
20478;SDS011;10398;52.490;13.434;2024-03-08T07:10:48;22.87;;;8.73;;
20478;SDS011;10398;52.490;13.434;2024-03-08T07:13:15;19.07;;;7.57;;
20478;SDS011;10398;52.490;13.434;2024-03-08T07:15:41;27.00;;;8.50;;
20478;SDS011;10398;52.490;13.434;2024-03-08T07:18:08;22.87;;;8.57;;
20478;SDS011;10398;52.490;13.434;2024-03-08T07:20:34;24.63;;;8.40;;
20478;SDS011;10398;52.490;13.434;2024-03-08T07:22:59;28.27;;;8.87;;
20478;SDS011;10398;52.490;13.434;2024-03-08T07:25:25;25.90;;;8.77;;
20478;SDS011;10398;52.490;13.434;2024-03-08T07:27:54;28.27;;;8.77;;
20478;SDS011;10398;52.490;13.434;2024-03-08T07:30:24;21.43;;;8.13;;
20478;SDS011;10398;52.490;13.434;2024-03-08T07:33:05;23.40;;;9.20;;
20478;SDS011;10398;52.490;13.434;2024-03-08T07:35:37;19.47;;;7.10;;
20478;SDS011;10398;52.490;13.434;2024-03-08T07:38:06;19.80;;;7.83;;
20478;SDS011;10398;52.490;13.434;2024-03-08T07:40:36;24.27;;;8.80;;
20478;SDS011;10398;52.490;13.434;2024-03-08T07:43:05;33.90;;;8.47;;
20478;SDS011;10398;52.490;13.434;2024-03-08T07:45:33;25.13;;;8.40;;
20478;SDS011;10398;52.490;13.434;2024-03-08T07:48:00;25.00;;;8.77;;
20478;SDS011;10398;52.490;13.434;2024-03-08T07:50:28;24.70;;;8.23;;
20478;SDS011;10398;52.490;13.434;2024-03-08T07:52:53;18.87;;;8.27;;
20478;SDS011;10398;52.490;13.434;2024-03-08T07:55:19;25.13;;;8.37;;
20478;SDS011;10398;52.490;13.434;2024-03-08T07:57:49;25.03;;;7.57;;
20478;SDS011;10398;52.490;13.434;2024-03-08T08:00:14;24.10;;;7.77;;
20478;SDS011;10398;52.490;13.434;2024-03-08T08:02:44;24.40;;;8.17;;
20478;SDS011;10398;52.490;13.434;2024-03-08T08:05:10;24.00;;;7.97;;
20478;SDS011;10398;52.490;13.434;2024-03-08T08:07:36;24.43;;;9.60;;
20478;SDS011;10398;52.490;13.434;2024-03-08T08:10:02;23.30;;;7.30;;
20478;SDS011;10398;52.490;13.434;2024-03-08T08:12:30;19.97;;;8.33;;
20478;SDS011;10398;52.490;13.434;2024-03-08T08:14:59;24.87;;;9.00;;
20478;SDS011;10398;52.490;13.434;2024-03-08T08:17:26;24.30;;;8.63;;
20478;SDS011;10398;52.490;13.434;2024-03-08T08:19:52;23.93;;;8.37;;
20478;SDS011;10398;52.490;13.434;2024-03-08T08:22:17;23.57;;;8.13;;
20478;SDS011;10398;52.490;13.434;2024-03-08T08:24:43;26.40;;;8.00;;
20478;SDS011;10398;52.490;13.434;2024-03-08T08:27:09;19.97;;;8.97;;
20478;SDS011;10398;52.490;13.434;2024-03-08T08:29:36;24.60;;;8.03;;
20478;SDS011;10398;52.490;13.434;2024-03-08T08:32:02;20.70;;;7.73;;
20478;SDS011;10398;52.490;13.434;2024-03-08T08:34:28;21.37;;;8.40;;
20478;SDS011;10398;52.490;13.434;2024-03-08T08:36:55;24.30;;;8.33;;
20478;SDS011;10398;52.490;13.434;2024-03-08T08:39:20;26.80;;;9.13;;
20478;SDS011;10398;52.490;13.434;2024-03-08T08:41:47;18.60;;;7.50;;
20478;SDS011;10398;52.490;13.434;2024-03-08T08:44:13;27.73;;;8.33;;
20478;SDS011;10398;52.490;13.434;2024-03-08T08:46:40;21.23;;;8.33;;
20478;SDS011;10398;52.490;13.434;2024-03-08T08:49:05;22.50;;;7.53;;
20478;SDS011;10398;52.490;13.434;2024-03-08T08:51:33;23.03;;;8.83;;
20478;SDS011;10398;52.490;13.434;2024-03-08T08:53:59;22.30;;;7.13;;
20478;SDS011;10398;52.490;13.434;2024-03-08T08:56:25;26.73;;;9.47;;
20478;SDS011;10398;52.490;13.434;2024-03-08T08:58:51;34.13;;;8.60;;
20478;SDS011;10398;52.490;13.434;2024-03-08T09:01:20;24.20;;;8.10;;
20478;SDS011;10398;52.490;13.434;2024-03-08T09:03:46;27.13;;;7.93;;
20478;SDS011;10398;52.490;13.434;2024-03-08T09:06:12;19.67;;;6.90;;
20478;SDS011;10398;52.490;13.434;2024-03-08T09:08:38;18.23;;;7.13;;
20478;SDS011;10398;52.490;13.434;2024-03-08T09:11:04;22.67;;;8.13;;
20478;SDS011;10398;52.490;13.434;2024-03-08T09:13:30;28.27;;;8.73;;
20478;SDS011;10398;52.490;13.434;2024-03-08T09:15:56;25.43;;;8.57;;
20478;SDS011;10398;52.490;13.434;2024-03-08T09:18:22;21.00;;;7.70;;
20478;SDS011;10398;52.490;13.434;2024-03-08T09:20:49;26.83;;;8.67;;
20478;SDS011;10398;52.490;13.434;2024-03-08T09:23:14;24.10;;;9.20;;
20478;SDS011;10398;52.490;13.434;2024-03-08T09:25:42;25.00;;;8.80;;
20478;SDS011;10398;52.490;13.434;2024-03-08T09:28:08;22.73;;;8.67;;
20478;SDS011;10398;52.490;13.434;2024-03-08T09:30:36;22.63;;;8.20;;
20478;SDS011;10398;52.490;13.434;2024-03-08T09:33:03;22.97;;;8.30;;
20478;SDS011;10398;52.490;13.434;2024-03-08T09:35:29;21.87;;;7.90;;
20478;SDS011;10398;52.490;13.434;2024-03-08T09:37:55;20.93;;;8.13;;
20478;SDS011;10398;52.490;13.434;2024-03-08T09:40:21;22.57;;;8.37;;
20478;SDS011;10398;52.490;13.434;2024-03-08T09:42:49;22.13;;;9.57;;
20478;SDS011;10398;52.490;13.434;2024-03-08T09:45:15;20.93;;;7.97;;
20478;SDS011;10398;52.490;13.434;2024-03-08T09:47:43;25.07;;;8.73;;
20478;SDS011;10398;52.490;13.434;2024-03-08T09:50:09;19.63;;;7.30;;
20478;SDS011;10398;52.490;13.434;2024-03-08T09:52:40;26.33;;;9.37;;
20478;SDS011;10398;52.490;13.434;2024-03-08T09:55:09;24.27;;;8.77;;
20478;SDS011;10398;52.490;13.434;2024-03-08T09:57:39;22.33;;;8.17;;
20478;SDS011;10398;52.490;13.434;2024-03-08T10:00:05;19.83;;;7.30;;
20478;SDS011;10398;52.490;13.434;2024-03-08T10:02:46;17.03;;;7.33;;
20478;SDS011;10398;52.490;13.434;2024-03-08T10:05:12;17.87;;;7.10;;
20478;SDS011;10398;52.490;13.434;2024-03-08T10:07:39;18.63;;;7.07;;
20478;SDS011;10398;52.490;13.434;2024-03-08T10:10:05;22.00;;;7.87;;
20478;SDS011;10398;52.490;13.434;2024-03-08T10:12:33;16.93;;;5.13;;
20478;SDS011;10398;52.490;13.434;2024-03-08T10:14:59;22.50;;;6.70;;
20478;SDS011;10398;52.490;13.434;2024-03-08T10:17:26;18.17;;;7.53;;
20478;SDS011;10398;52.490;13.434;2024-03-08T10:19:52;18.93;;;7.70;;
20478;SDS011;10398;52.490;13.434;2024-03-08T10:22:18;21.17;;;8.03;;
20478;SDS011;10398;52.490;13.434;2024-03-08T10:24:47;24.83;;;8.57;;
20478;SDS011;10398;52.490;13.434;2024-03-08T10:27:13;17.77;;;7.77;;
20478;SDS011;10398;52.490;13.434;2024-03-08T10:29:41;22.77;;;9.80;;
20478;SDS011;10398;52.490;13.434;2024-03-08T10:32:09;20.23;;;8.10;;
20478;SDS011;10398;52.490;13.434;2024-03-08T10:34:35;21.47;;;9.03;;
20478;SDS011;10398;52.490;13.434;2024-03-08T10:37:03;21.93;;;8.43;;
20478;SDS011;10398;52.490;13.434;2024-03-08T10:39:31;21.57;;;9.20;;
20478;SDS011;10398;52.490;13.434;2024-03-08T10:42:02;23.73;;;9.37;;
20478;SDS011;10398;52.490;13.434;2024-03-08T10:49:43;22.97;;;8.93;;
20478;SDS011;10398;52.490;13.434;2024-03-08T10:52:29;20.90;;;8.30;;
20478;SDS011;10398;52.490;13.434;2024-03-08T10:54:56;17.80;;;8.50;;
20478;SDS011;10398;52.490;13.434;2024-03-08T10:57:24;18.47;;;8.40;;
20478;SDS011;10398;52.490;13.434;2024-03-08T10:59:50;22.87;;;9.53;;
20478;SDS011;10398;52.490;13.434;2024-03-08T11:02:17;19.73;;;9.00;;
20478;SDS011;10398;52.490;13.434;2024-03-08T11:04:47;21.60;;;8.00;;
20478;SDS011;10398;52.490;13.434;2024-03-08T11:07:14;17.67;;;6.40;;
20478;SDS011;10398;52.490;13.434;2024-03-08T11:09:43;19.10;;;7.53;;
20478;SDS011;10398;52.490;13.434;2024-03-08T11:12:23;22.73;;;8.67;;
20478;SDS011;10398;52.490;13.434;2024-03-08T11:14:51;17.43;;;8.43;;
20478;SDS011;10398;52.490;13.434;2024-03-08T11:19:52;20.10;;;8.20;;
20478;SDS011;10398;52.490;13.434;2024-03-08T11:22:22;19.30;;;8.43;;
20478;SDS011;10398;52.490;13.434;2024-03-08T11:24:52;20.53;;;8.77;;
20478;SDS011;10398;52.490;13.434;2024-03-08T11:27:18;18.13;;;8.27;;
20478;SDS011;10398;52.490;13.434;2024-03-08T11:29:46;17.53;;;8.77;;
20478;SDS011;10398;52.490;13.434;2024-03-08T11:32:36;20.30;;;8.00;;
20478;SDS011;10398;52.490;13.434;2024-03-08T11:35:06;19.80;;;8.03;;
20478;SDS011;10398;52.490;13.434;2024-03-08T11:37:42;22.87;;;8.37;;
20478;SDS011;10398;52.490;13.434;2024-03-08T11:40:12;20.70;;;8.27;;
20478;SDS011;10398;52.490;13.434;2024-03-08T11:42:48;21.20;;;8.53;;
20478;SDS011;10398;52.490;13.434;2024-03-08T11:45:17;17.43;;;8.10;;
20478;SDS011;10398;52.490;13.434;2024-03-08T11:47:46;20.27;;;8.40;;
20478;SDS011;10398;52.490;13.434;2024-03-08T11:50:12;18.30;;;7.50;;
20478;SDS011;10398;52.490;13.434;2024-03-08T11:52:38;21.73;;;8.60;;
20478;SDS011;10398;52.490;13.434;2024-03-08T11:55:04;17.97;;;7.57;;
20478;SDS011;10398;52.490;13.434;2024-03-08T11:57:30;19.27;;;8.13;;
20478;SDS011;10398;52.490;13.434;2024-03-08T11:59:57;19.60;;;8.37;;
20478;SDS011;10398;52.490;13.434;2024-03-08T12:02:24;24.40;;;10.03;;
20478;SDS011;10398;52.490;13.434;2024-03-08T12:04:59;21.30;;;8.73;;
20478;SDS011;10398;52.490;13.434;2024-03-08T12:07:28;18.83;;;8.73;;
20478;SDS011;10398;52.490;13.434;2024-03-08T12:12:46;22.07;;;9.17;;
20478;SDS011;10398;52.490;13.434;2024-03-08T12:15:21;22.23;;;9.37;;
20478;SDS011;10398;52.490;13.434;2024-03-08T12:17:49;20.93;;;8.50;;
20478;SDS011;10398;52.490;13.434;2024-03-08T12:20:19;20.13;;;8.97;;
20478;SDS011;10398;52.490;13.434;2024-03-08T12:22:46;23.23;;;9.07;;
20478;SDS011;10398;52.490;13.434;2024-03-08T12:25:13;22.47;;;8.40;;
20478;SDS011;10398;52.490;13.434;2024-03-08T12:27:43;19.67;;;8.27;;
20478;SDS011;10398;52.490;13.434;2024-03-08T12:30:16;19.93;;;9.53;;
20478;SDS011;10398;52.490;13.434;2024-03-08T12:32:52;24.33;;;8.90;;
20478;SDS011;10398;52.490;13.434;2024-03-08T12:35:21;24.00;;;8.90;;
20478;SDS011;10398;52.490;13.434;2024-03-08T12:37:52;21.63;;;8.57;;
20478;SDS011;10398;52.490;13.434;2024-03-08T12:40:19;21.33;;;9.33;;
20478;SDS011;10398;52.490;13.434;2024-03-08T12:42:51;20.97;;;9.00;;
20478;SDS011;10398;52.490;13.434;2024-03-08T12:45:17;19.90;;;8.07;;
20478;SDS011;10398;52.490;13.434;2024-03-08T12:47:43;24.17;;;8.80;;
20478;SDS011;10398;52.490;13.434;2024-03-08T12:50:09;21.67;;;8.60;;
20478;SDS011;10398;52.490;13.434;2024-03-08T12:52:35;18.20;;;8.53;;
20478;SDS011;10398;52.490;13.434;2024-03-08T12:55:01;18.67;;;8.53;;
20478;SDS011;10398;52.490;13.434;2024-03-08T12:57:27;22.47;;;8.53;;
20478;SDS011;10398;52.490;13.434;2024-03-08T12:59:53;19.70;;;8.63;;
20478;SDS011;10398;52.490;13.434;2024-03-08T13:02:19;18.87;;;8.20;;
20478;SDS011;10398;52.490;13.434;2024-03-08T13:04:45;25.87;;;9.77;;
20478;SDS011;10398;52.490;13.434;2024-03-08T13:07:20;25.83;;;9.27;;
20478;SDS011;10398;52.490;13.434;2024-03-08T13:09:46;19.33;;;8.13;;
20478;SDS011;10398;52.490;13.434;2024-03-08T13:12:12;20.03;;;8.20;;
20478;SDS011;10398;52.490;13.434;2024-03-08T13:14:40;22.20;;;9.07;;
20478;SDS011;10398;52.490;13.434;2024-03-08T13:17:06;20.83;;;8.80;;
20478;SDS011;10398;52.490;13.434;2024-03-08T13:19:36;22.17;;;9.07;;
20478;SDS011;10398;52.490;13.434;2024-03-08T13:22:03;21.83;;;8.27;;
20478;SDS011;10398;52.490;13.434;2024-03-08T13:24:32;21.20;;;7.63;;
20478;SDS011;10398;52.490;13.434;2024-03-08T13:26:59;18.63;;;8.33;;
20478;SDS011;10398;52.490;13.434;2024-03-08T13:29:25;18.40;;;8.13;;
20478;SDS011;10398;52.490;13.434;2024-03-08T13:31:50;18.97;;;8.57;;
20478;SDS011;10398;52.490;13.434;2024-03-08T13:34:18;17.47;;;7.80;;
20478;SDS011;10398;52.490;13.434;2024-03-08T13:36:44;18.10;;;7.40;;
20478;SDS011;10398;52.490;13.434;2024-03-08T13:39:11;18.77;;;8.10;;
20478;SDS011;10398;52.490;13.434;2024-03-08T13:41:46;17.50;;;7.67;;
20478;SDS011;10398;52.490;13.434;2024-03-08T13:44:14;17.07;;;7.53;;
20478;SDS011;10398;52.490;13.434;2024-03-08T13:46:39;20.20;;;7.47;;
20478;SDS011;10398;52.490;13.434;2024-03-08T13:49:06;15.80;;;6.70;;
20478;SDS011;10398;52.490;13.434;2024-03-08T13:51:33;13.67;;;6.37;;
20478;SDS011;10398;52.490;13.434;2024-03-08T13:53:59;13.30;;;6.10;;
20478;SDS011;10398;52.490;13.434;2024-03-08T13:56:25;13.70;;;6.17;;
20478;SDS011;10398;52.490;13.434;2024-03-08T13:58:52;14.30;;;6.40;;
20478;SDS011;10398;52.490;13.434;2024-03-08T14:01:18;16.87;;;6.70;;
20478;SDS011;10398;52.490;13.434;2024-03-08T14:03:43;17.27;;;7.03;;
20478;SDS011;10398;52.490;13.434;2024-03-08T14:06:09;19.33;;;9.00;;
20478;SDS011;10398;52.490;13.434;2024-03-08T14:08:35;16.13;;;7.17;;
20478;SDS011;10398;52.490;13.434;2024-03-08T14:11:04;17.67;;;6.83;;
20478;SDS011;10398;52.490;13.434;2024-03-08T14:13:43;16.10;;;7.20;;
20478;SDS011;10398;52.490;13.434;2024-03-08T14:16:13;15.57;;;7.33;;
20478;SDS011;10398;52.490;13.434;2024-03-08T14:18:40;14.20;;;6.77;;
20478;SDS011;10398;52.490;13.434;2024-03-08T14:21:05;16.67;;;6.87;;
20478;SDS011;10398;52.490;13.434;2024-03-08T14:23:35;14.83;;;6.43;;
20478;SDS011;10398;52.490;13.434;2024-03-08T14:26:01;19.98;;;7.72;;
20478;SDS011;10398;52.490;13.434;2024-03-08T14:28:28;17.50;;;6.97;;
20478;SDS011;10398;52.490;13.434;2024-03-08T14:30:54;22.67;;;7.75;;
20478;SDS011;10398;52.490;13.434;2024-03-08T14:33:20;15.85;;;6.78;;